createdAt,value
2019-05-06T00:02:19.766Z,6.18
2019-05-06T00:04:51.425Z,5.82
2019-05-06T00:07:24.279Z,5.82
2019-05-06T00:09:56.390Z,5.44
2019-05-06T00:12:28.524Z,5.74
2019-05-06T00:15:00.496Z,5.65
2019-05-06T00:17:34.933Z,5.32
2019-05-06T00:20:06.055Z,5.75
2019-05-06T00:22:39.484Z,5.77
2019-05-06T00:25:16.894Z,5.29
2019-05-06T00:28:06.281Z,5.40
2019-05-06T00:30:38.292Z,5.70
2019-05-06T00:33:10.160Z,5.65
2019-05-06T00:35:42.096Z,5.58
2019-05-06T00:38:14.168Z,5.53
2019-05-06T00:40:46.943Z,5.78
2019-05-06T00:43:18.937Z,5.89
2019-05-06T00:45:50.571Z,5.57
2019-05-06T00:48:24.370Z,5.71
2019-05-06T00:50:56.129Z,5.61
2019-05-06T00:53:29.434Z,5.58
2019-05-06T00:56:04.440Z,5.57
2019-05-06T00:58:36.314Z,5.43
2019-05-06T01:01:08.141Z,5.48
2019-05-06T01:03:39.854Z,5.67
2019-05-06T01:06:11.525Z,5.41
2019-05-06T01:08:44.114Z,5.53
2019-05-06T01:11:16.753Z,5.77
2019-05-06T01:14:00.332Z,5.69
2019-05-06T01:16:31.727Z,5.66
2019-05-06T01:19:04.727Z,5.68
2019-05-06T01:21:37.052Z,5.36
2019-05-06T01:24:08.698Z,5.52
2019-05-06T01:26:40.567Z,5.63
2019-05-06T01:29:14.382Z,5.71
2019-05-06T01:31:46.460Z,5.50
2019-05-06T01:34:18.018Z,5.40
2019-05-06T01:36:49.406Z,5.08
2019-05-06T01:39:58.406Z,5.27
2019-05-06T01:42:34.577Z,5.56
2019-05-06T01:45:07.697Z,4.98
2019-05-06T01:47:40.065Z,5.47
2019-05-06T01:50:11.417Z,5.27
2019-05-06T01:52:44.285Z,5.55
2019-05-06T01:55:16.015Z,4.93
2019-05-06T01:57:48.598Z,4.93
2019-05-06T02:00:19.681Z,4.57
2019-05-06T02:02:51.580Z,4.88
2019-05-06T02:05:24.269Z,4.81
2019-05-06T02:07:56.470Z,4.74
2019-05-06T02:10:28.306Z,4.62
2019-05-06T02:12:59.841Z,4.52
2019-05-06T02:15:31.387Z,4.96
2019-05-06T02:18:04.111Z,4.79
2019-05-06T02:20:38.903Z,4.70
2019-05-06T02:23:14.903Z,4.41
2019-05-06T02:25:49.376Z,4.66
2019-05-06T02:28:21.057Z,4.74
2019-05-06T02:31:17.471Z,5.10
2019-05-06T02:34:17.417Z,5.11
2019-05-06T02:36:57.233Z,4.52
2019-05-06T02:39:29.211Z,4.37
2019-05-06T02:42:03.779Z,4.50
2019-05-06T02:44:34.140Z,4.59
2019-05-06T02:47:34.301Z,5.10
2019-05-06T02:50:09.504Z,4.67
2019-05-06T02:52:43.797Z,4.88
2019-05-06T02:55:14.145Z,4.54
2019-05-06T02:57:46.014Z,4.32
2019-05-06T03:00:19.488Z,4.70
2019-05-06T03:02:54.138Z,4.33
2019-05-06T03:05:25.460Z,4.65
2019-05-06T03:07:57.868Z,4.64
2019-05-06T03:10:29.545Z,4.50
2019-05-06T03:13:03.046Z,4.34
2019-05-06T03:15:35.996Z,4.68
2019-05-06T03:18:07.859Z,4.93
2019-05-06T03:20:49.328Z,4.68
2019-05-06T03:23:23.620Z,4.90
2019-05-06T03:25:56.226Z,4.83
2019-05-06T03:28:27.989Z,4.78
2019-05-06T03:30:59.569Z,4.74
2019-05-06T03:33:50.701Z,4.72
2019-05-06T03:36:15.550Z,4.22
2019-05-06T03:38:38.041Z,4.43
2019-05-06T03:41:13.647Z,4.25
2019-05-06T03:43:44.197Z,4.49
2019-05-06T03:46:53.982Z,4.66
2019-05-06T03:49:28.902Z,4.55
2019-05-06T03:52:02.733Z,4.64
2019-05-06T03:54:34.462Z,4.70
2019-05-06T03:57:06.320Z,4.48
2019-05-06T03:59:39.759Z,4.61
2019-05-06T04:02:13.238Z,4.62
2019-05-06T04:04:45.311Z,4.34
2019-05-06T04:07:17.263Z,4.57
2019-05-06T04:09:49.142Z,4.73
2019-05-06T04:12:23.331Z,4.60
2019-05-06T04:14:54.403Z,4.57
2019-05-06T04:17:37.718Z,4.54
2019-05-06T04:20:18.886Z,4.83
2019-05-06T04:22:56.918Z,4.92
2019-05-06T04:25:47.546Z,4.70
2019-05-06T04:28:23.808Z,5.03
2019-05-06T04:30:55.399Z,4.92
2019-05-06T04:33:28.305Z,4.88
2019-05-06T04:36:03.523Z,4.93
2019-05-06T04:38:34.276Z,4.78
2019-05-06T04:41:06.051Z,4.88
2019-05-06T04:43:38.624Z,4.72
2019-05-06T04:46:13.596Z,4.78
2019-05-06T04:48:43.966Z,4.89
2019-05-06T04:51:16.185Z,4.97
2019-05-06T04:53:48.238Z,4.94
2019-05-06T04:56:19.800Z,5.14
2019-05-06T04:58:53.892Z,4.94
2019-05-06T05:01:25.561Z,5.00
2019-05-06T05:03:57.087Z,5.15
2019-05-06T05:06:29.061Z,5.36
2019-05-06T05:09:02.928Z,5.40
2019-05-06T05:11:49.138Z,5.49
2019-05-06T05:14:32.792Z,5.36
2019-05-06T05:17:14.732Z,5.72
2019-05-06T05:19:46.643Z,5.43
2019-05-06T05:22:18.404Z,5.67
2019-05-06T05:24:52.189Z,5.60
2019-05-06T05:27:23.615Z,5.77
2019-05-06T05:29:55.809Z,5.73
2019-05-06T05:32:28.564Z,5.69
2019-05-06T05:35:02.086Z,5.68
2019-05-06T05:37:33.541Z,5.72
2019-05-06T05:40:05.400Z,5.85
2019-05-06T05:42:52.724Z,6.11
2019-05-06T05:45:24.777Z,5.90
2019-05-06T05:47:57.812Z,6.04
2019-05-06T05:50:35.980Z,5.90
2019-05-06T05:53:07.324Z,6.31
2019-05-06T05:55:39.633Z,6.28
2019-05-06T05:58:12.924Z,6.26
2019-05-06T06:00:44.435Z,6.50
2019-05-06T06:03:16.098Z,6.15
2019-05-06T06:05:48.073Z,6.21
2019-05-06T06:08:22.134Z,6.46
2019-05-06T06:11:00.293Z,6.78
2019-05-06T06:13:32.062Z,6.72
2019-05-06T06:16:32.835Z,6.68
2019-05-06T06:19:17.734Z,6.91
2019-05-06T06:21:57.077Z,6.89
2019-05-06T06:24:32.227Z,7.16
2019-05-06T06:27:04.470Z,7.40
2019-05-06T06:29:36.140Z,6.93
2019-05-06T06:32:20.181Z,7.37
2019-05-06T06:35:19.095Z,7.37
2019-05-06T06:38:05.773Z,7.32
2019-05-06T06:40:37.455Z,7.07
2019-05-06T06:43:14.879Z,7.15
2019-05-06T06:45:46.886Z,7.13
2019-05-06T06:48:18.565Z,7.46
2019-05-06T06:50:51.755Z,7.51
2019-05-06T06:53:23.810Z,7.62
2019-05-06T06:56:14.707Z,7.90
2019-05-06T06:59:05.627Z,7.85
2019-05-06T07:01:43.010Z,8.04
2019-05-06T07:04:19.882Z,8.36
2019-05-06T07:06:54.109Z,8.22
2019-05-06T07:09:25.951Z,8.19
2019-05-06T07:11:57.310Z,8.10
2019-05-06T07:14:28.753Z,8.45
2019-05-06T07:17:02.453Z,8.12
2019-05-06T07:19:42.145Z,8.24
2019-05-06T07:22:13.017Z,7.82
2019-05-06T07:24:44.808Z,7.98
2019-05-06T07:27:22.681Z,7.84
2019-05-06T07:29:53.631Z,8.70
2019-05-06T07:32:25.290Z,8.96
2019-05-06T07:34:57.150Z,8.70
2019-05-06T07:37:29.559Z,9.25
2019-05-06T07:40:03.078Z,8.88
2019-05-06T07:42:46.083Z,9.33
2019-05-06T07:45:32.720Z,9.72
2019-05-06T07:48:09.793Z,9.64
2019-05-06T07:50:42.588Z,9.57
2019-05-06T07:53:14.660Z,10.24
2019-05-06T07:55:46.351Z,9.25
2019-05-06T07:58:18.054Z,9.25
2019-05-06T08:00:49.648Z,9.47
2019-05-06T08:03:22.313Z,9.12
2019-05-06T08:05:58.377Z,9.07
2019-05-06T08:08:26.854Z,9.39
2019-05-06T08:10:58.817Z,9.88
2019-05-06T08:13:32.241Z,9.50
2019-05-06T08:16:04.771Z,9.48
2019-05-06T08:18:36.544Z,10.24
2019-05-06T08:21:16.427Z,9.82
2019-05-06T08:23:52.124Z,10.09
2019-05-06T08:26:23.224Z,10.15
2019-05-06T08:28:54.728Z,10.26
2019-05-06T08:31:26.007Z,10.43
2019-05-06T08:33:58.070Z,10.19
2019-05-06T08:36:47.740Z,10.63
2019-05-06T08:39:19.415Z,9.93
2019-05-06T08:41:52.881Z,10.32
2019-05-06T08:44:24.985Z,10.21
2019-05-06T08:46:56.342Z,10.06
2019-05-06T08:49:29.290Z,10.45
2019-05-06T08:52:07.716Z,10.83
2019-05-06T08:54:43.654Z,11.04
2019-05-06T08:57:15.925Z,11.77
2019-05-06T08:59:47.410Z,11.06
2019-05-06T09:02:22.744Z,10.74
2019-05-06T09:04:54.696Z,11.46
2019-05-06T09:07:26.553Z,11.58
2019-05-06T09:09:58.905Z,10.99
2019-05-06T09:12:30.286Z,10.93
2019-05-06T09:15:03.529Z,11.51
2019-05-06T09:17:35.734Z,10.88
2019-05-06T09:20:07.155Z,11.38
2019-05-06T09:22:39.060Z,11.85
2019-05-06T09:25:12.719Z,12.16
2019-05-06T09:27:59.142Z,11.51
2019-05-06T09:30:43.263Z,11.48
2019-05-06T09:33:17.859Z,10.81
2019-05-06T09:35:49.649Z,11.84
2019-05-06T09:38:22.839Z,11.77
2019-05-06T09:40:55.103Z,12.17
2019-05-06T09:43:26.903Z,11.68
2019-05-06T09:45:59.041Z,11.91
2019-05-06T09:48:49.612Z,11.03
2019-05-06T09:51:22.117Z,10.63
2019-05-06T09:54:23.615Z,11.38
2019-05-06T09:57:08.222Z,12.05
2019-05-06T09:59:39.742Z,12.04
2019-05-06T10:02:12.545Z,11.01
2019-05-06T10:04:44.405Z,10.80
2019-05-06T10:07:15.975Z,10.61
2019-05-06T10:09:47.620Z,11.02
2019-05-06T10:12:19.371Z,10.96
2019-05-06T10:14:53.170Z,11.20
2019-05-06T10:17:24.652Z,11.08
2019-05-06T10:19:57.333Z,10.62
2019-05-06T10:22:29.173Z,10.36
2019-05-06T10:25:03.606Z,10.83
2019-05-06T10:27:38.287Z,11.23
2019-05-06T10:30:12.520Z,11.09
2019-05-06T10:32:53.422Z,10.71
2019-05-06T10:35:29.176Z,10.52
2019-05-06T10:38:05.004Z,10.90
2019-05-06T10:40:56.214Z,11.14
2019-05-06T10:43:22.028Z,10.92
2019-05-06T10:45:54.303Z,10.78
2019-05-06T10:48:25.920Z,10.65
2019-05-06T10:51:03.580Z,10.14
2019-05-06T10:53:36.777Z,10.07
2019-05-06T10:56:31.987Z,10.49
2019-05-06T10:59:03.261Z,10.49
2019-05-06T11:01:42.532Z,11.00
2019-05-06T11:04:12.963Z,11.43
2019-05-06T11:06:44.701Z,11.31
2019-05-06T11:09:16.375Z,11.58
2019-05-06T11:11:48.577Z,11.73
2019-05-06T11:14:22.736Z,11.73
2019-05-06T11:16:54.059Z,11.25
2019-05-06T11:19:25.021Z,11.63
2019-05-06T11:21:56.296Z,11.85
2019-05-06T11:24:27.927Z,11.46
2019-05-06T11:26:59.799Z,11.68
2019-05-06T11:29:33.910Z,11.52
2019-05-06T11:32:17.965Z,11.30
2019-05-06T11:35:12.414Z,11.89
2019-05-06T11:38:03.085Z,12.31
2019-05-06T11:40:35.140Z,12.20
2019-05-06T11:43:07.237Z,11.86
2019-05-06T11:45:39.455Z,12.01
2019-05-06T11:48:14.356Z,12.67
2019-05-06T11:50:46.989Z,12.19
2019-05-06T11:53:18.875Z,11.96
2019-05-06T11:55:54.340Z,12.58
2019-05-06T11:58:43.383Z,12.36
2019-05-06T12:01:22.079Z,12.66
2019-05-06T12:03:53.292Z,12.52
2019-05-06T12:06:24.957Z,13.06
2019-05-06T12:08:57.086Z,12.54
2019-05-06T12:11:29.095Z,11.95
2019-05-06T12:14:02.392Z,11.95
2019-05-06T12:16:33.868Z,13.20
2019-05-06T12:19:05.713Z,12.81
2019-05-06T12:21:37.008Z,12.89
2019-05-06T12:24:08.560Z,13.22
2019-05-06T12:26:42.705Z,13.47
2019-05-06T12:29:13.986Z,13.34
2019-05-06T12:31:49.613Z,12.58
2019-05-06T12:34:20.875Z,11.89
2019-05-06T12:36:55.577Z,11.89
2019-05-06T12:39:29.674Z,11.99
2019-05-06T12:42:25.900Z,12.51
2019-05-06T12:45:16.416Z,12.36
2019-05-06T12:47:55.322Z,12.41
2019-05-06T12:50:27.283Z,12.71
2019-05-06T12:52:58.779Z,12.45
2019-05-06T12:55:30.346Z,12.58
2019-05-06T12:58:02.955Z,12.69
2019-05-06T13:00:35.617Z,12.46
2019-05-06T13:03:06.883Z,12.40
2019-05-06T13:05:39.282Z,12.05
2019-05-06T13:08:18.784Z,12.41
2019-05-06T13:10:45.443Z,12.50
2019-05-06T13:13:17.703Z,12.64
2019-05-06T13:15:52.603Z,14.05
2019-05-06T13:18:23.384Z,12.87
2019-05-06T13:20:55.581Z,13.06
2019-05-06T13:23:52.075Z,12.33
2019-05-06T13:26:24.265Z,11.98
2019-05-06T13:28:59.381Z,12.27
2019-05-06T13:31:32.656Z,12.11
2019-05-06T13:34:06.351Z,11.99
2019-05-06T13:36:37.620Z,12.37
2019-05-06T13:39:14.384Z,12.12
2019-05-06T13:41:42.854Z,12.40
2019-05-06T13:44:18.809Z,12.58
2019-05-06T13:46:53.618Z,12.58
2019-05-06T13:49:52.222Z,12.68
2019-05-06T13:52:30.351Z,12.54
2019-05-06T13:55:02.734Z,12.60
2019-05-06T13:57:34.185Z,12.42
2019-05-06T14:00:06.131Z,12.28
2019-05-06T14:02:49.790Z,12.33
2019-05-06T14:05:22.199Z,12.14
2019-05-06T14:07:53.740Z,12.41
2019-05-06T14:10:25.345Z,12.39
2019-05-06T14:12:57.373Z,11.97
2019-05-06T14:15:28.641Z,11.97
2019-05-06T14:18:02.420Z,12.24
2019-05-06T14:20:33.700Z,12.18
2019-05-06T14:23:05.675Z,12.15
2019-05-06T14:25:49.919Z,12.07
2019-05-06T14:28:32.539Z,12.15
2019-05-06T14:31:09.006Z,12.15
2019-05-06T14:33:42.721Z,12.40
2019-05-06T14:36:13.546Z,12.14
2019-05-06T14:38:44.953Z,12.10
2019-05-06T14:41:18.968Z,12.19
2019-05-06T14:43:50.348Z,12.13
2019-05-06T14:46:22.797Z,12.14
2019-05-06T14:48:54.502Z,12.04
2019-05-06T14:51:26.150Z,12.13
2019-05-06T14:53:58.201Z,12.05
2019-05-06T14:56:42.735Z,11.86
2019-05-06T14:59:14.507Z,12.06
2019-05-06T15:01:46.105Z,11.78
2019-05-06T15:04:17.324Z,11.63
2019-05-06T15:06:50.032Z,11.61
2019-05-06T15:09:22.622Z,11.48
2019-05-06T15:11:54.115Z,11.54
2019-05-06T15:14:25.777Z,11.18
2019-05-06T15:16:57.571Z,10.60
2019-05-06T15:19:29.419Z,10.76
2019-05-06T15:22:02.260Z,10.46
2019-05-06T15:24:34.554Z,10.39
2019-05-06T15:27:06.120Z,10.16
2019-05-06T15:29:37.887Z,10.18
2019-05-06T15:32:29.497Z,9.97
2019-05-06T15:35:13.344Z,9.88
2019-05-06T15:37:53.855Z,9.94
2019-05-06T15:40:32.972Z,9.80
2019-05-06T15:42:58.517Z,9.42
2019-05-06T15:45:32.372Z,9.43
2019-05-06T15:48:03.372Z,9.41
2019-05-06T15:50:34.378Z,9.36
2019-05-06T15:53:06.159Z,9.24
2019-05-06T15:55:38.125Z,9.17
2019-05-06T15:58:09.426Z,9.27
2019-05-06T16:00:42.441Z,9.30
2019-05-06T16:03:14.146Z,9.20
2019-05-06T16:05:46.310Z,9.29
2019-05-06T16:08:18.142Z,9.31
2019-05-06T16:10:52.384Z,9.49
2019-05-06T16:13:22.752Z,9.57
2019-05-06T16:15:53.753Z,9.37
2019-05-06T16:18:25.723Z,9.32
2019-05-06T16:20:57.632Z,9.26
2019-05-06T16:23:35.557Z,9.66
2019-05-06T16:26:06.849Z,9.55
2019-05-06T16:28:38.760Z,9.74
2019-05-06T16:31:10.300Z,9.73
2019-05-06T16:33:43.097Z,9.81
2019-05-06T16:36:15.058Z,9.73
2019-05-06T16:38:47.291Z,9.53
2019-05-06T16:41:19.184Z,9.52
2019-05-06T16:43:52.377Z,9.59
2019-05-06T16:46:24.066Z,9.53
2019-05-06T16:48:55.991Z,9.58
2019-05-06T16:51:27.949Z,9.57
2019-05-06T16:53:59.486Z,9.64
2019-05-06T16:56:44.606Z,9.53
2019-05-06T16:59:15.088Z,9.68
2019-05-06T17:01:46.860Z,9.50
2019-05-06T17:04:41.886Z,9.57
2019-05-06T17:07:13.708Z,9.68
2019-05-06T17:09:45.057Z,9.30
2019-05-06T17:12:16.500Z,9.16
2019-05-06T17:14:47.955Z,9.07
2019-05-06T17:17:19.599Z,9.32
2019-05-06T17:19:52.874Z,9.10
2019-05-06T17:22:25.132Z,9.30
2019-05-06T17:24:56.437Z,9.13
2019-05-06T17:27:28.181Z,9.20
2019-05-06T17:30:22.596Z,9.28
2019-05-06T17:32:58.560Z,9.42
2019-05-06T17:35:32.777Z,9.36
2019-05-06T17:38:13.733Z,9.41
2019-05-06T17:40:46.056Z,9.29
2019-05-06T17:43:17.957Z,9.47
2019-05-06T17:46:02.541Z,9.41
2019-05-06T17:49:02.524Z,9.46
2019-05-06T17:51:37.383Z,9.47
2019-05-06T17:54:09.183Z,9.27
2019-05-06T17:56:41.970Z,9.23
2019-05-06T17:59:13.652Z,9.34
2019-05-06T18:01:48.212Z,9.19
2019-05-06T18:04:20.033Z,9.33
2019-05-06T18:06:52.638Z,9.35
2019-05-06T18:09:24.692Z,9.12
2019-05-06T18:11:59.458Z,9.22
2019-05-06T18:14:32.625Z,9.17
2019-05-06T18:17:03.982Z,9.25
2019-05-06T18:19:35.746Z,9.23
2019-05-06T18:22:07.809Z,9.23
2019-05-06T18:24:39.978Z,9.12
2019-05-06T18:27:13.151Z,9.13
2019-05-06T18:29:44.809Z,9.15
2019-05-06T18:32:16.498Z,9.15
2019-05-06T18:34:48.095Z,9.12
2019-05-06T18:37:19.453Z,9.34
2019-05-06T18:39:53.089Z,9.34
2019-05-06T18:42:25.301Z,9.51
2019-05-06T18:44:56.880Z,9.51
2019-05-06T18:47:28.919Z,9.45
2019-05-06T18:50:02.317Z,9.43
2019-05-06T18:52:35.071Z,9.70
2019-05-06T18:55:06.992Z,9.61
2019-05-06T18:57:38.781Z,9.53
2019-05-06T19:00:10.600Z,9.30
2019-05-06T19:02:42.401Z,9.23
2019-05-06T19:05:26.994Z,9.17
2019-05-06T19:07:57.921Z,9.28
2019-05-06T19:10:33.200Z,9.07
2019-05-06T19:13:05.191Z,9.16
2019-05-06T19:15:37.323Z,9.07
2019-05-06T19:18:09.348Z,9.22
2019-05-06T19:20:42.450Z,9.08
2019-05-06T19:23:14.899Z,9.10
2019-05-06T19:25:47.018Z,8.96
2019-05-06T19:28:18.719Z,8.99
2019-05-06T19:30:51.638Z,8.71
2019-05-06T19:33:24.128Z,8.62
2019-05-06T19:35:55.766Z,8.34
2019-05-06T19:38:28.036Z,8.40
2019-05-06T19:41:02.030Z,8.32
2019-05-06T19:43:33.816Z,8.15
2019-05-06T19:46:05.756Z,8.20
2019-05-06T19:48:37.735Z,8.24
2019-05-06T19:51:09.374Z,8.39
2019-05-06T19:53:42.881Z,8.19
2019-05-06T19:56:15.482Z,8.26
2019-05-06T19:58:46.840Z,7.99
2019-05-06T20:01:18.617Z,8.12
2019-05-06T20:03:52.659Z,8.34
2019-05-06T20:06:43.802Z,8.20
2019-05-06T20:09:24.956Z,8.02
2019-05-06T20:11:59.931Z,8.42
2019-05-06T20:14:31.838Z,8.25
2019-05-06T20:17:03.799Z,8.28
2019-05-06T20:19:35.624Z,8.13
2019-05-06T20:22:07.794Z,8.21
2019-05-06T20:24:39.511Z,7.77
2019-05-06T20:27:13.305Z,7.49
2019-05-06T20:29:45.077Z,7.43
2019-05-06T20:32:16.663Z,7.21
2019-05-06T20:34:50.117Z,7.15
2019-05-06T20:37:22.355Z,7.09
2019-05-06T20:39:54.448Z,7.07
2019-05-06T20:42:26.678Z,6.97
2019-05-06T20:44:58.447Z,6.95
2019-05-06T20:47:32.025Z,7.17
2019-05-06T20:50:05.396Z,7.24
2019-05-06T20:52:37.519Z,7.38
2019-05-06T20:55:15.942Z,7.54
2019-05-06T20:57:43.937Z,7.38
2019-05-06T21:00:17.228Z,7.40
2019-05-06T21:02:49.578Z,7.40
2019-05-06T21:05:22.767Z,7.52
2019-05-06T21:07:54.844Z,7.34
2019-05-06T21:10:27.304Z,7.48
2019-05-06T21:12:59.204Z,7.29
2019-05-06T21:15:32.544Z,7.57
2019-05-06T21:18:04.595Z,7.57
2019-05-06T21:20:36.673Z,7.78
2019-05-06T21:23:09.064Z,7.64
2019-05-06T21:25:42.928Z,7.53
2019-05-06T21:28:13.610Z,7.77
2019-05-06T21:30:45.124Z,7.68
2019-05-06T21:33:17.615Z,7.89
2019-05-06T21:35:52.083Z,8.10
2019-05-06T21:38:23.277Z,8.33
2019-05-06T21:40:55.351Z,8.04
2019-05-06T21:43:27.960Z,8.22
2019-05-06T21:45:59.771Z,7.92
2019-05-06T21:48:33.702Z,7.84
2019-05-06T21:51:05.673Z,7.43
2019-05-06T21:53:37.340Z,7.52
2019-05-06T21:56:09.390Z,7.72
2019-05-06T21:58:42.827Z,7.80
2019-05-06T22:01:14.939Z,7.43
2019-05-06T22:03:46.753Z,7.65
2019-05-06T22:06:19.146Z,7.67
2019-05-06T22:08:51.887Z,7.68
2019-05-06T22:11:24.503Z,7.72
2019-05-06T22:14:01.412Z,7.59
2019-05-06T22:16:32.331Z,7.44
2019-05-06T22:19:03.646Z,7.29
2019-05-06T22:21:36.163Z,7.40
2019-05-06T22:24:07.637Z,7.42
2019-05-06T22:26:39.296Z,7.40
2019-05-06T22:29:12.249Z,7.38
2019-05-06T22:31:44.447Z,7.56
2019-05-06T22:34:16.200Z,7.37
2019-05-06T22:36:47.830Z,7.45
2019-05-06T22:39:19.372Z,7.76
2019-05-06T22:41:52.007Z,7.61
2019-05-06T22:44:23.437Z,7.57
2019-05-06T22:46:55.374Z,7.61
2019-05-06T22:49:27.339Z,7.60
2019-05-06T22:51:59.560Z,7.74
2019-05-06T22:54:32.017Z,7.24
2019-05-06T22:57:05.045Z,7.49
2019-05-06T22:59:36.907Z,7.45
2019-05-06T23:02:32.833Z,7.50
2019-05-06T23:05:04.646Z,7.67
2019-05-06T23:07:37.594Z,7.75
2019-05-06T23:10:10.282Z,7.88
2019-05-06T23:12:43.382Z,7.55
2019-05-06T23:15:14.933Z,7.52
2019-05-06T23:17:46.765Z,7.47
2019-05-06T23:20:18.181Z,7.39
2019-05-06T23:22:49.779Z,7.04
2019-05-06T23:25:23.488Z,6.98
2019-05-06T23:27:55.606Z,7.28
2019-05-06T23:30:26.871Z,7.06
2019-05-06T23:32:58.648Z,7.44
2019-05-06T23:35:30.640Z,7.20
2019-05-06T23:38:38.012Z,7.55
2019-05-06T23:41:45.707Z,7.66
2019-05-06T23:44:54.717Z,7.55
2019-05-06T23:48:02.622Z,7.71
2019-05-06T23:51:10.141Z,7.62
2019-05-06T23:54:18.969Z,7.26
2019-05-06T23:56:52.114Z,7.24
2019-05-06T23:59:23.725Z,7.03
